Time;durP1;ratioP1;P1;durP2;ratioP2;P2;SDS_P1;SDS_P2;PMS_P1;PMS_P2;Temp;Humidity;BMP_temperature;BMP_pressure;BME280_temperature;BME280_humidity;BME280_pressure;Samples;Min_cycle;Max_cycle;Signal;HPM_P1;HPM_P2
2021/06/28 00:01:15;;;;;;;13.60;8.48;;;615.30;1638.40;;;;;;4973228;28;20125;-70
2021/06/28 00:03:42;;;;;;;11.63;8.55;;;615.30;1664.00;;;;;;4975694;28;20046;-64
2021/06/28 00:06:08;;;;;;;13.30;7.72;;;615.20;1664.00;;;;;;4975440;28;20054;-69
2021/06/28 00:08:35;;;;;;;11.65;8.05;;;615.20;1664.00;;;;;;4975375;28;20114;-63
2021/06/28 00:11:01;;;;;;;11.93;7.28;;;615.20;1638.40;;;;;;4978313;28;20050;-63
2021/06/28 00:13:27;;;;;;;13.38;8.05;;;615.20;1638.40;;;;;;4989790;28;20077;-63
2021/06/28 00:15:53;;;;;;;13.50;7.93;;;615.20;1664.00;;;;;;4994554;28;20030;-63
2021/06/28 00:18:20;;;;;;;13.90;8.10;;;615.20;1664.00;;;;;;4994841;28;20057;-62
2021/06/28 00:20:47;;;;;;;18.17;9.75;;;615.10;1689.60;;;;;;4994629;28;20029;-62
2021/06/28 00:23:13;;;;;;;13.18;7.70;;;615.10;1689.60;;;;;;4994804;28;20022;-62
2021/06/28 00:25:39;;;;;;;12.15;8.10;;;615.10;1715.20;;;;;;4994623;28;20026;-61
2021/06/28 00:28:06;;;;;;;16.77;7.80;;;615.10;1715.20;;;;;;4993576;28;20073;-62
2021/06/28 00:30:39;;;;;;;11.63;7.47;;;615.10;1689.60;;;;;;4994336;28;20125;-62
2021/06/28 00:33:06;;;;;;;12.25;8.10;;;614.90;1715.20;;;;;;4994691;28;20412;-62
2021/06/28 00:35:32;;;;;;;14.63;7.70;;;614.90;1715.20;;;;;;4994510;28;20030;-62
2021/06/28 00:37:58;;;;;;;13.05;8.07;;;614.90;1715.20;;;;;;4994032;28;20030;-62
2021/06/28 00:40:24;;;;;;;12.00;6.80;;;614.90;1689.60;;;;;;4994533;28;20050;-62
2021/06/28 00:42:50;;;;;;;12.82;7.03;;;614.90;1715.20;;;;;;4994239;28;20120;-61
2021/06/28 00:45:31;;;;;;;10.25;6.30;;;614.90;1689.60;;;;;;4994545;28;20464;-62
2021/06/28 00:48:00;;;;;;;6.15;5.55;;;614.90;1689.60;;;;;;4994548;28;20101;-62
2021/06/28 00:50:28;;;;;;;9.48;6.47;;;614.90;1689.60;;;;;;4994289;28;20070;-62
2021/06/28 00:53:07;;;;;;;9.77;6.22;;;614.90;1689.60;;;;;;4994586;28;20096;-62
2021/06/28 00:55:34;;;;;;;13.90;6.05;;;614.90;1689.60;;;;;;4994382;28;20109;-62
2021/06/28 00:58:01;;;;;;;9.02;6.22;;;614.80;1689.60;;;;;;4994395;28;20098;-62
2021/06/28 01:00:27;;;;;;;7.97;5.82;;;614.80;1689.60;;;;;;4994388;28;20030;-61
2021/06/28 01:02:54;;;;;;;9.13;5.60;;;614.80;1689.60;;;;;;4994234;28;20467;-62
2021/06/28 01:05:23;;;;;;;6.35;5.70;;;614.80;1689.60;;;;;;4992690;28;20034;-61
2021/06/28 01:07:49;;;;;;;9.40;5.63;;;614.70;1689.60;;;;;;4994459;28;20030;-62
2021/06/28 01:10:16;;;;;;;10.25;5.82;;;614.70;1689.60;;;;;;4993848;28;20361;-62
2021/06/28 01:12:43;;;;;;;8.40;5.68;;;614.70;1689.60;;;;;;4993806;28;20022;-62
2021/06/28 01:15:11;;;;;;;9.30;5.90;;;614.70;1689.60;;;;;;4994260;28;20061;-61
2021/06/28 01:17:38;;;;;;;6.65;5.90;;;614.70;1715.20;;;;;;4994658;28;20022;-62
2021/06/28 01:20:12;;;;;;;9.90;6.28;;;614.70;1715.20;;;;;;4995054;28;20033;-62
2021/06/28 01:22:41;;;;;;;9.15;5.47;;;614.60;1715.20;;;;;;4997855;28;20022;-62
2021/06/28 01:25:11;;;;;;;7.07;6.07;;;614.60;1715.20;;;;;;4998050;28;20037;-62
2021/06/28 01:27:38;;;;;;;10.50;6.22;;;614.60;1740.80;;;;;;4998455;28;20460;-62
2021/06/28 01:30:06;;;;;;;7.03;5.47;;;614.50;1740.80;;;;;;4997870;28;20042;-62
2021/06/28 01:32:32;;;;;;;6.78;5.75;;;614.50;1740.80;;;;;;4997962;28;20026;-61
2021/06/28 01:34:59;;;;;;;7.13;5.78;;;614.40;1740.80;;;;;;4997339;28;20050;-61
2021/06/28 01:37:28;;;;;;;6.85;5.47;;;614.40;1740.80;;;;;;4978283;28;20027;-61
2021/06/28 01:40:00;;;;;;;7.93;6.38;;;614.40;1740.80;;;;;;4978275;28;20027;-62
2021/06/28 01:42:27;;;;;;;8.80;6.10;;;614.40;1740.80;;;;;;4978035;28;20370;-61
2021/06/28 01:44:53;;;;;;;9.48;5.30;;;614.40;1740.80;;;;;;4977270;28;20031;-62
2021/06/28 01:47:21;;;;;;;7.20;5.78;;;614.40;1740.80;;;;;;4978101;28;20059;-62
2021/06/28 01:49:48;;;;;;;5.78;5.18;;;614.40;1740.80;;;;;;4976600;28;20043;-61
2021/06/28 01:52:14;;;;;;;7.95;5.43;;;589.70;1740.80;;;;;;4978012;28;20031;-62
2021/06/28 01:54:40;;;;;;;7.13;5.20;;;589.70;1740.80;;;;;;4978098;28;20524;-62
2021/06/28 01:57:06;;;;;;;7.28;5.60;;;589.70;1766.40;;;;;;4977887;28;20034;-61
2021/06/28 01:59:37;;;;;;;7.47;5.32;;;589.60;1766.40;;;;;;4977342;28;20511;-61
2021/06/28 02:02:05;;;;;;;8.32;5.43;;;589.60;1766.40;;;;;;4978057;28;20031;-61
2021/06/28 02:04:31;;;;;;;6.38;4.82;;;589.60;1740.80;;;;;;4977855;28;20465;-61
2021/06/28 02:06:58;;;;;;;8.30;5.28;;;589.60;1715.20;;;;;;4978195;28;20132;-62
2021/06/28 02:09:24;;;;;;;6.97;5.30;;;589.60;1715.20;;;;;;4976388;28;20027;-62
2021/06/28 02:11:50;;;;;;;19.10;6.28;;;589.50;1715.20;;;;;;4977833;28;20341;-70
2021/06/28 02:14:16;;;;;;;9.25;6.07;;;589.40;1740.80;;;;;;4977550;28;20038;-64
2021/06/28 02:16:47;;;;;;;10.20;5.85;;;589.40;1715.20;;;;;;4977233;28;20134;-63
2021/06/28 02:19:15;;;;;;;10.85;5.47;;;589.40;1715.20;;;;;;4977540;28;20059;-68
2021/06/28 02:21:42;;;;;;;7.35;5.00;;;589.30;1689.60;;;;;;4977552;28;20023;-68
2021/06/28 02:24:08;;;;;;;7.75;4.88;;;589.40;1689.60;;;;;;4977485;28;20033;-62
2021/06/28 02:26:34;;;;;;;11.32;5.53;;;589.30;1689.60;;;;;;4977066;28;20125;-64
2021/06/28 02:29:00;;;;;;;5.80;4.90;;;589.30;1689.60;;;;;;4977248;28;20023;-65
2021/06/28 02:31:26;;;;;;;7.65;5.10;;;589.30;1689.60;;;;;;4976391;28;20135;-63
2021/06/28 02:33:53;;;;;;;10.15;5.57;;;589.30;1715.20;;;;;;4977430;28;20031;-71
2021/06/28 02:36:21;;;;;;;8.77;5.15;;;589.20;1715.20;;;;;;4983103;28;20065;-63
2021/06/28 02:38:48;;;;;;;6.47;5.00;;;589.20;1715.20;;;;;;4978773;28;20054;-63
2021/06/28 02:41:16;;;;;;;11.68;5.47;;;589.20;1715.20;;;;;;4985390;28;20018;-63
2021/06/28 02:43:42;;;;;;;15.65;5.90;;;589.20;1715.20;;;;;;4986082;28;20043;-71
2021/06/28 02:46:10;;;;;;;12.02;6.40;;;589.10;1715.20;;;;;;4984491;28;20034;-63
2021/06/28 02:48:36;;;;;;;8.90;5.90;;;589.10;1740.80;;;;;;4966136;28;20082;-63
2021/06/28 02:51:03;;;;;;;10.10;5.25;;;589.10;1740.80;;;;;;4984178;28;20038;-67
2021/06/28 02:53:29;;;;;;;18.48;5.78;;;589.10;1740.80;;;;;;4985222;28;20054;-64
2021/06/28 02:55:55;;;;;;;10.43;5.97;;;589.10;1740.80;;;;;;4984768;28;20038;-62
2021/06/28 02:58:21;;;;;;;11.93;6.20;;;589.10;1740.80;;;;;;4986408;28;20416;-63
2021/06/28 03:00:47;;;;;;;14.10;6.05;;;589.10;1740.80;;;;;;4984733;28;20019;-63
2021/06/28 03:03:13;;;;;;;7.45;5.93;;;589.10;1740.80;;;;;;4984458;28;20026;-63
2021/06/28 03:05:42;;;;;;;17.10;6.15;;;589.10;1740.80;;;;;;4986049;28;20027;-69
2021/06/28 03:08:08;;;;;;;9.40;5.70;;;589.00;1740.80;;;;;;4990318;28;20030;-72
2021/06/28 03:10:35;;;;;;;17.70;5.60;;;589.10;1740.80;;;;;;4992729;28;20058;-67
2021/06/28 03:13:00;;;;;;;18.08;6.10;;;589.10;1740.80;;;;;;4986102;28;20038;-64
2021/06/28 03:15:27;;;;;;;18.92;6.63;;;589.10;1740.80;;;;;;4986447;28;20546;-71
2021/06/28 03:17:52;;;;;;;14.93;6.30;;;589.10;1740.80;;;;;;4985114;28;20027;-65
2021/06/28 03:20:18;;;;;;;12.52;6.70;;;589.10;1740.80;;;;;;4985589;28;20096;-68
2021/06/28 03:22:46;;;;;;;13.05;7.25;;;589.10;1740.80;;;;;;4986393;28;20061;-71
2021/06/28 03:25:14;;;;;;;12.00;7.20;;;589.10;1740.80;;;;;;4989501;28;20023;-72
2021/06/28 03:27:41;;;;;;;9.02;7.18;;;589.00;1740.80;;;;;;4976384;28;20178;-65
2021/06/28 03:30:09;;;;;;;14.75;8.60;;;589.00;1740.80;;;;;;4975933;28;20069;-64
2021/06/28 03:32:35;;;;;;;15.98;7.78;;;589.00;1740.80;;;;;;4976149;28;20448;-71
2021/06/28 03:35:02;;;;;;;17.90;7.90;;;589.00;1766.40;;;;;;4976223;28;20046;-63
2021/06/28 03:37:28;;;;;;;11.27;7.85;;;588.90;1766.40;;;;;;4974901;28;20022;-63
2021/06/28 03:39:54;;;;;;;30.77;8.52;;;588.90;1766.40;;;;;;4975983;28;20038;-63
2021/06/28 03:42:19;;;;;;;16.27;7.93;;;588.90;1766.40;;;;;;4975787;28;20043;-70
2021/06/28 03:44:45;;;;;;;20.20;8.23;;;589.00;1766.40;;;;;;4975800;28;20114;-64
2021/06/28 03:47:11;;;;;;;23.48;7.85;;;589.00;1766.40;;;;;;4976092;28;20019;-63
2021/06/28 03:49:36;;;;;;;18.67;8.98;;;589.00;1766.40;;;;;;4975985;28;20073;-63
2021/06/28 03:52:03;;;;;;;17.42;8.40;;;589.00;1792.00;;;;;;4975662;28;20384;-64
2021/06/28 03:54:29;;;;;;;16.25;8.73;;;589.00;1792.00;;;;;;4975605;28;20035;-68
2021/06/28 03:56:55;;;;;;;19.52;8.68;;;589.00;1792.00;;;;;;4976345;28;20495;-72
2021/06/28 03:59:21;;;;;;;22.15;9.52;;;589.00;1792.00;;;;;;4975677;28;20026;-71
2021/06/28 04:01:47;;;;;;;16.42;9.70;;;589.10;1792.00;;;;;;4974123;28;20492;-71
2021/06/28 04:04:13;;;;;;;26.65;9.48;;;589.10;1766.40;;;;;;4975420;28;20042;-62
2021/06/28 04:06:38;;;;;;;21.92;8.82;;;589.10;1792.00;;;;;;4958179;28;20030;-63
2021/06/28 04:09:04;;;;;;;18.98;8.30;;;589.20;1792.00;;;;;;4975502;28;20038;-69
2021/06/28 04:11:30;;;;;;;13.60;7.10;;;589.20;1792.00;;;;;;4975656;28;20049;-62
2021/06/28 04:13:57;;;;;;;13.30;7.25;;;589.30;1766.40;;;;;;4975572;28;20033;-63
2021/06/28 04:16:23;;;;;;;12.70;6.53;;;589.30;1766.40;;;;;;4975269;28;20100;-71
2021/06/28 04:18:49;;;;;;;10.82;6.07;;;589.40;1766.40;;;;;;4958062;28;20033;-69
2021/06/28 04:21:15;;;;;;;8.63;6.32;;;589.50;1766.40;;;;;;4975139;28;20027;-70
2021/06/28 04:23:40;;;;;;;7.90;6.05;;;589.50;1766.40;;;;;;4975486;28;20033;-63
2021/06/28 04:26:06;;;;;;;9.07;5.68;;;589.50;1766.40;;;;;;4975247;28;20031;-71
2021/06/28 04:28:33;;;;;;;10.68;6.47;;;589.60;1740.80;;;;;;4973422;28;20050;-68
2021/06/28 04:30:59;;;;;;;10.57;6.55;;;589.60;1740.80;;;;;;4975103;28;20430;-63
2021/06/28 04:33:26;;;;;;;6.68;5.75;;;589.70;1740.80;;;;;;4975364;28;20042;-71
2021/06/28 04:35:52;;;;;;;10.73;6.55;;;589.70;1740.80;;;;;;4975273;28;20027;-64
2021/06/28 04:38:18;;;;;;;9.48;7.15;;;589.70;1740.80;;;;;;4975226;28;20027;-63
2021/06/28 04:40:45;;;;;;;10.38;6.53;;;614.40;1740.80;;;;;;4973168;28;20125;-63
2021/06/28 04:43:11;;;;;;;22.42;6.72;;;614.50;1740.80;;;;;;4974940;28;20511;-63
2021/06/28 04:45:37;;;;;;;11.38;6.35;;;614.50;1740.80;;;;;;4975028;28;20031;-71
2021/06/28 04:48:03;;;;;;;12.32;6.78;;;614.70;1740.80;;;;;;4975053;28;20030;-63
2021/06/28 04:50:29;;;;;;;10.35;7.22;;;614.80;1715.20;;;;;;4975048;28;20045;-64
2021/06/28 04:52:56;;;;;;;13.50;6.57;;;614.90;1715.20;;;;;;4974894;28;20026;-63
2021/06/28 04:55:23;;;;;;;11.65;6.75;;;615.10;1689.60;;;;;;4974143;28;20481;-63
2021/06/28 04:57:50;;;;;;;9.20;6.40;;;615.30;1638.40;;;;;;4975101;28;20049;-63
2021/06/28 05:00:19;;;;;;;12.98;7.20;;;640.00;1612.80;;;;;;4957480;28;20042;-63
2021/06/28 05:02:45;;;;;;;9.68;6.05;;;640.20;1587.20;;;;;;4975236;28;20066;-63
2021/06/28 05:05:13;;;;;;;11.15;6.40;;;640.50;1587.20;;;;;;4974830;28;20038;-69
2021/06/28 05:07:39;;;;;;;10.30;6.18;;;640.60;1561.60;;;;;;4975006;28;20051;-71
2021/06/28 05:10:07;;;;;;;10.65;6.25;;;640.70;1536.00;;;;;;4974860;28;20039;-63
2021/06/28 05:12:33;;;;;;;10.55;5.90;;;665.60;1536.00;;;;;;4974737;28;20454;-71
2021/06/28 05:14:58;;;;;;;28.25;6.70;;;665.70;1484.80;;;;;;4974992;28;20042;-65
2021/06/28 05:17:25;;;;;;;9.10;5.75;;;665.80;1459.20;;;;;;4974908;28;20106;-63
2021/06/28 05:19:51;;;;;;;13.82;5.60;;;666.00;1459.20;;;;;;4974919;28;20031;-63
2021/06/28 05:22:17;;;;;;;6.90;5.47;;;666.20;1459.20;;;;;;4973120;28;20085;-63
2021/06/28 05:24:43;;;;;;;6.72;5.13;;;666.30;1459.20;;;;;;4974758;28;20053;-63
2021/06/28 05:27:09;;;;;;;6.80;5.47;;;666.40;1459.20;;;;;;4974860;28;20509;-72
2021/06/28 05:29:35;;;;;;;7.43;5.82;;;691.30;1433.60;;;;;;4956856;28;20035;-62
2021/06/28 05:32:01;;;;;;;10.25;5.47;;;691.30;1433.60;;;;;;4974748;28;20041;-63
2021/06/28 05:34:26;;;;;;;10.48;6.13;;;691.40;1408.00;;;;;;4974714;28;20047;-64
2021/06/28 05:36:52;;;;;;;11.27;5.72;;;691.60;1408.00;;;;;;4974448;28;20421;-63
2021/06/28 05:39:18;;;;;;;8.00;6.18;;;691.70;1408.00;;;;;;4974721;28;20030;-63
2021/06/28 05:41:44;;;;;;;8.07;6.05;;;691.80;1382.40;;;;;;4956633;28;20039;-63
2021/06/28 05:44:10;;;;;;;11.25;5.93;;;691.90;1356.80;;;;;;4974383;28;20110;-71
2021/06/28 05:46:35;;;;;;;10.02;5.38;;;692.00;1331.20;;;;;;4974536;28;20027;-72
2021/06/28 05:49:01;;;;;;;14.43;5.60;;;716.80;1331.20;;;;;;4956985;28;20553;-72
2021/06/28 05:51:27;;;;;;;7.95;5.97;;;716.90;1331.20;;;;;;4974879;28;20059;-72
2021/06/28 05:53:53;;;;;;;9.32;5.78;;;717.00;1305.60;;;;;;4974460;28;20028;-65
2021/06/28 05:56:19;;;;;;;12.57;5.88;;;717.30;1280.00;;;;;;4974535;28;20038;-64
2021/06/28 05:58:44;;;;;;;11.93;6.32;;;717.50;1280.00;;;;;;4974375;28;20027;-62
2021/06/28 06:01:11;;;;;;;8.93;5.63;;;717.60;1254.40;;;;;;4974419;28;20023;-72
2021/06/28 06:03:36;;;;;;;14.40;5.53;;;742.40;1280.00;;;;;;4974222;28;20350;-72
2021/06/28 06:06:04;;;;;;;8.05;5.07;;;742.50;1280.00;;;;;;4974971;28;20027;-63
2021/06/28 06:08:30;;;;;;;14.52;5.20;;;742.60;1254.40;;;;;;4978091;28;20034;-71
2021/06/28 06:10:58;;;;;;;8.52;4.97;;;742.70;1254.40;;;;;;4977741;28;20496;-63
2021/06/28 06:13:24;;;;;;;9.93;5.18;;;742.80;1254.40;;;;;;4977801;28;20030;-63
2021/06/28 06:15:51;;;;;;;6.40;4.90;;;743.00;1228.80;;;;;;4977630;28;20377;-63
2021/06/28 06:18:17;;;;;;;9.77;4.72;;;743.10;1228.80;;;;;;4977415;28;20421;-63
2021/06/28 06:20:44;;;;;;;8.63;4.78;;;743.20;1228.80;;;;;;4977789;28;20527;-72
2021/06/28 06:23:13;;;;;;;10.15;4.60;;;768.00;1203.20;;;;;;4977698;28;20047;-72
2021/06/28 06:25:40;;;;;;;5.53;4.25;;;768.20;1203.20;;;;;;4977462;28;20034;-68
2021/06/28 06:28:06;;;;;;;7.63;4.03;;;768.50;1177.60;;;;;;4977636;28;20110;-70
2021/06/28 06:30:32;;;;;;;7.65;4.40;;;768.70;1152.00;;;;;;4977205;28;20122;-63
2021/06/28 06:32:58;;;;;;;6.63;4.18;;;768.90;1126.40;;;;;;4975309;28;20030;-72
2021/06/28 06:35:25;;;;;;;7.70;4.15;;;793.70;1152.00;;;;;;4977300;28;20031;-65
2021/06/28 06:37:59;;;;;;;12.13;4.25;;;794.00;1126.40;;;;;;4977284;28;20022;-73
2021/06/28 06:40:26;;;;;;;9.70;4.00;;;794.20;1126.40;;;;;;4977416;28;20113;-63
2021/06/28 06:42:56;;;;;;;10.75;3.78;;;794.40;1126.40;;;;;;4977099;28;20054;-65
2021/06/28 06:45:23;;;;;;;10.18;5.10;;;819.20;1100.80;;;;;;4977023;28;20041;-63
2021/06/28 06:47:49;;;;;;;10.07;4.63;;;819.40;1075.20;;;;;;4977099;28;20062;-69
2021/06/28 06:50:16;;;;;;;6.45;4.03;;;819.60;1049.60;;;;;;4977128;28;20047;-63
2021/06/28 06:52:43;;;;;;;6.72;3.55;;;819.70;1049.60;;;;;;4976811;28;20023;-72
2021/06/28 06:55:11;;;;;;;5.90;3.85;;;819.90;1049.60;;;;;;4976530;28;20027;-63
2021/06/28 06:57:38;;;;;;;6.43;4.03;;;820.10;1024.00;;;;;;4976490;28;20026;-64
2021/06/28 07:00:12;;;;;;;6.05;4.47;;;844.90;1049.60;;;;;;4976751;28;20035;-67
2021/06/28 07:02:39;;;;;;;4.65;3.92;;;845.00;1024.00;;;;;;4975623;28;20030;-64
2021/06/28 07:05:05;;;;;;;6.78;4.70;;;845.30;998.40;;;;;;4976947;28;20106;-66
2021/06/28 07:07:31;;;;;;;9.90;4.80;;;845.30;972.80;;;;;;4976744;28;20033;-68
2021/06/28 07:09:57;;;;;;;6.60;4.40;;;845.50;947.20;;;;;;4976560;28;20038;-72
2021/06/28 07:12:22;;;;;;;8.75;4.30;;;845.60;947.20;;;;;;4976157;28;20465;-72
2021/06/28 07:14:48;;;;;;;6.53;4.18;;;870.40;921.60;;;;;;4976616;28;20034;-73
2021/06/28 07:17:14;;;;;;;5.90;4.22;;;870.60;896.00;;;;;;4976651;28;20496;-71
2021/06/28 07:19:40;;;;;;;7.32;4.28;;;870.70;896.00;;;;;;4976162;28;20428;-73
2021/06/28 07:22:05;;;;;;;6.45;4.53;;;870.90;870.40;;;;;;4976542;28;20027;-72
2021/06/28 07:24:32;;;;;;;5.72;4.40;;;871.00;870.40;;;;;;4976501;28;20027;-63
2021/06/28 07:26:57;;;;;;;9.77;4.25;;;871.20;870.40;;;;;;4976397;28;20023;-64
2021/06/28 07:29:24;;;;;;;6.95;4.20;;;896.00;870.40;;;;;;4975910;28;20037;-64
2021/06/28 07:31:49;;;;;;;10.82;4.28;;;896.30;844.80;;;;;;4958644;28;20077;-72
2021/06/28 07:34:15;;;;;;;6.03;4.35;;;896.40;844.80;;;;;;4976372;28;20046;-72
2021/06/28 07:36:42;;;;;;;4.97;3.95;;;896.50;819.20;;;;;;4976161;28;20066;-72
2021/06/28 07:39:08;;;;;;;3.72;3.33;;;896.70;844.80;;;;;;4976182;28;20489;-69
2021/06/28 07:41:34;;;;;;;9.73;4.18;;;896.80;819.20;;;;;;4976185;28;20027;-73
2021/06/28 07:44:02;;;;;;;7.88;4.45;;;921.60;844.80;;;;;;4975749;28;20077;-73
2021/06/28 07:46:28;;;;;;;10.15;3.75;;;921.80;819.20;;;;;;4975957;28;20552;-64
2021/06/28 07:48:54;;;;;;;6.45;3.80;;;921.90;819.20;;;;;;4958296;28;20039;-65
2021/06/28 07:51:20;;;;;;;6.65;4.00;;;922.00;819.20;;;;;;4975878;28;20354;-64
2021/06/28 07:53:46;;;;;;;5.45;3.78;;;922.10;793.60;;;;;;4975933;28;20018;-64
2021/06/28 07:56:16;;;;;;;4.97;3.55;;;922.30;793.60;;;;;;4975941;28;20027;-73
2021/06/28 07:58:43;;;;;;;7.53;3.30;;;922.50;768.00;;;;;;4975842;28;20023;-66
2021/06/28 08:01:10;;;;;;;5.13;2.95;;;947.20;768.00;;;;;;4975826;28;20436;-65
2021/06/28 08:03:36;;;;;;;3.83;3.20;;;947.20;768.00;;;;;;4976014;28;20027;-73
2021/06/28 08:06:02;;;;;;;6.47;3.38;;;947.40;768.00;;;;;;4975651;28;20061;-63
2021/06/28 08:08:28;;;;;;;6.25;3.40;;;947.50;742.40;;;;;;4975417;28;20056;-73
2021/06/28 08:10:53;;;;;;;3.55;3.25;;;947.70;742.40;;;;;;4975713;28;20034;-63
2021/06/28 08:13:19;;;;;;;4.63;3.53;;;947.70;691.20;;;;;;4975781;28;20027;-72
2021/06/28 08:15:45;;;;;;;3.38;3.05;;;947.90;691.20;;;;;;4975499;28;20477;-72
2021/06/28 08:18:10;;;;;;;4.75;2.85;;;948.10;691.20;;;;;;4975432;28;20053;-70
2021/06/28 08:20:37;;;;;;;5.85;3.03;;;972.80;691.20;;;;;;4975485;28;20027;-73
2021/06/28 08:23:04;;;;;;;3.85;2.85;;;972.80;716.80;;;;;;4957857;28;20030;-64
2021/06/28 08:25:30;;;;;;;3.50;2.83;;;972.90;716.80;;;;;;4975192;28;20037;-64
2021/06/28 08:27:56;;;;;;;6.05;3.33;;;972.90;716.80;;;;;;4975318;28;20035;-66
2021/06/28 08:30:22;;;;;;;4.07;2.97;;;973.20;691.20;;;;;;4974393;28;20031;-64
2021/06/28 08:32:48;;;;;;;6.15;3.03;;;973.20;691.20;;;;;;4975359;28;20460;-70
2021/06/28 08:35:14;;;;;;;6.65;3.45;;;973.30;665.60;;;;;;4975435;28;20054;-73
2021/06/28 08:37:40;;;;;;;3.67;2.75;;;973.30;665.60;;;;;;4975282;28;20027;-63
2021/06/28 08:40:09;;;;;;;3.63;3.00;;;973.30;665.60;;;;;;4975184;28;20082;-73
2021/06/28 08:42:35;;;;;;;4.63;3.08;;;973.50;665.60;;;;;;4975098;28;20039;-64
2021/06/28 08:45:01;;;;;;;2.58;2.38;;;973.60;640.00;;;;;;4975158;28;20480;-64
2021/06/28 08:47:28;;;;;;;2.90;2.50;;;973.60;640.00;;;;;;4973212;28;20097;-70
2021/06/28 08:49:54;;;;;;;7.80;2.50;;;973.70;640.00;;;;;;4974885;28;20096;-64
2021/06/28 08:52:22;;;;;;;7.70;3.05;;;998.40;665.60;;;;;;4974800;28;20121;-64
2021/06/28 08:54:48;;;;;;;4.93;2.90;;;998.50;665.60;;;;;;4974893;28;20038;-65
2021/06/28 08:57:13;;;;;;;2.83;2.28;;;998.50;640.00;;;;;;4975130;28;20026;-71
2021/06/28 08:59:42;;;;;;;3.45;2.50;;;998.60;640.00;;;;;;4974778;28;20033;-64
2021/06/28 09:02:08;;;;;;;2.72;2.45;;;998.60;640.00;;;;;;4974607;28;20037;-64
2021/06/28 09:04:34;;;;;;;5.80;2.30;;;998.70;614.40;;;;;;4972988;28;20106;-64
2021/06/28 09:07:21;;;;;;;3.20;2.35;;;998.90;614.40;;;;;;4974978;28;20023;-68
2021/06/28 09:09:47;;;;;;;3.13;2.50;;;998.90;640.00;;;;;;4972687;28;20583;-72
2021/06/28 09:12:15;;;;;;;2.50;2.30;;;998.90;614.40;;;;;;4956719;28;20117;-73
2021/06/28 09:14:59;;;;;;;3.05;2.30;;;998.90;614.40;;;;;;4974764;28;20038;-74
2021/06/28 09:17:29;;;;;;;2.25;2.05;;;999.00;614.40;;;;;;4974752;28;20027;-73
2021/06/28 09:20:13;;;;;;;3.95;2.20;;;999.00;588.80;;;;;;4974775;28;20353;-64
2021/06/28 09:22:40;;;;;;;3.05;2.75;;;999.10;588.80;;;;;;4974939;28;20026;-71
2021/06/28 09:25:08;;;;;;;4.43;2.30;;;999.20;588.80;;;;;;4975012;28;20031;-63
2021/06/28 09:27:44;;;;;;;2.38;2.17;;;999.30;563.20;;;;;;4974698;28;20018;-64
2021/06/28 09:30:21;;;;;;;3.00;2.25;;;999.30;563.20;;;;;;4974595;28;20039;-73
2021/06/28 09:32:51;;;;;;;2.90;2.28;;;1024.00;563.20;;;;;;4974648;28;20381;-64
2021/06/28 09:35:31;;;;;;;2.45;2.13;;;1024.00;563.20;;;;;;4974680;28;20106;-64
2021/06/28 09:38:02;;;;;;;4.25;2.40;;;1024.10;588.80;;;;;;4974719;28;20436;-74
2021/06/28 09:40:28;;;;;;;3.47;2.40;;;1024.10;588.80;;;;;;4973424;28;20031;-73
2021/06/28 09:42:54;;;;;;;4.90;2.50;;;1024.10;563.20;;;;;;4976562;28;20404;-73
2021/06/28 09:45:21;;;;;;;3.72;2.42;;;1024.30;563.20;;;;;;4978160;28;20376;-65
2021/06/28 09:47:50;;;;;;;4.43;2.38;;;1024.40;537.60;;;;;;4978411;28;20508;-70
2021/06/28 09:50:23;;;;;;;2.97;2.08;;;1024.40;537.60;;;;;;4978247;28;20067;-64
2021/06/28 09:52:52;;;;;;;3.85;2.22;;;1024.30;537.60;;;;;;4976750;28;20090;-70
2021/06/28 09:55:39;;;;;;;2.50;2.03;;;1024.40;537.60;;;;;;4978112;28;20440;-68
2021/06/28 09:58:21;;;;;;;3.15;2.17;;;1024.40;537.60;;;;;;4978112;28;20022;-74
2021/06/28 10:01:00;;;;;;;5.38;2.20;;;1024.40;537.60;;;;;;4977948;28;20106;-73
2021/06/28 10:03:50;;;;;;;5.20;2.40;;;1024.40;537.60;;;;;;4960518;28;20417;-73
2021/06/28 10:06:28;;;;;;;2.00;1.80;;;1024.50;537.60;;;;;;4974571;28;20488;-64
2021/06/28 10:09:07;;;;;;;4.22;1.95;;;1024.50;537.60;;;;;;4978033;28;20034;-68
2021/06/28 10:11:33;;;;;;;5.60;2.03;;;1024.60;537.60;;;;;;4977871;28;20038;-64
2021/06/28 10:14:02;;;;;;;2.50;2.30;;;1024.70;537.60;;;;;;4978081;28;20059;-72
2021/06/28 10:16:33;;;;;;;3.80;1.90;;;1049.60;537.60;;;;;;4978192;28;20023;-74
2021/06/28 10:19:00;;;;;;;2.45;2.00;;;1049.80;512.00;;;;;;4977628;28;20112;-64
2021/06/28 10:21:28;;;;;;;4.32;1.90;;;1049.70;486.40;;;;;;4977510;28;20023;-64
2021/06/28 10:23:54;;;;;;;2.10;1.90;;;1049.70;486.40;;;;;;4977588;28;20030;-73
2021/06/28 10:26:20;;;;;;;3.50;2.15;;;1049.70;486.40;;;;;;4977715;28;20031;-65
2021/06/28 10:28:47;;;;;;;2.97;2.10;;;1049.70;512.00;;;;;;4977164;28;20389;-64
2021/06/28 10:31:13;;;;;;;1.90;1.70;;;1049.80;512.00;;;;;;4977000;28;20771;-73
2021/06/28 10:33:41;;;;;;;3.83;1.60;;;1049.90;486.40;;;;;;4986657;28;20105;-65
2021/06/28 10:36:11;;;;;;;2.35;2.10;;;1049.90;512.00;;;;;;4985621;28;20018;-68
2021/06/28 10:38:45;;;;;;;2.78;2.25;;;1049.80;512.00;;;;;;4984667;28;20062;-73
2021/06/28 10:41:11;;;;;;;3.20;2.03;;;1049.90;512.00;;;;;;4985369;28;20026;-73
2021/06/28 10:43:39;;;;;;;2.38;2.17;;;1049.80;537.60;;;;;;4986097;28;20488;-70
2021/06/28 10:46:07;;;;;;;3.85;2.40;;;1049.90;537.60;;;;;;4983762;28;20026;-65
2021/06/28 10:48:49;;;;;;;3.83;2.10;;;1049.90;537.60;;;;;;4986240;28;20553;-73
2021/06/28 10:51:19;;;;;;;2.00;1.90;;;1049.90;537.60;;;;;;4986241;28;20403;-74
2021/06/28 10:53:44;;;;;;;4.78;2.33;;;1049.90;537.60;;;;;;4984387;28;20437;-64
2021/06/28 10:56:31;;;;;;;2.35;2.15;;;1050.00;537.60;;;;;;4984828;28;20105;-64
2021/06/28 10:58:59;;;;;;;3.03;2.03;;;1050.00;512.00;;;;;;4986152;28;20033;-73
2021/06/28 11:01:37;;;;;;;3.90;2.40;;;1050.00;537.60;;;;;;4985239;28;20022;-73
2021/06/28 11:04:12;;;;;;;3.55;2.10;;;1050.00;537.60;;;;;;4996986;28;20050;-74
2021/06/28 11:07:02;;;;;;;2.22;2.03;;;1050.10;537.60;;;;;;4996866;28;20057;-72
2021/06/28 11:09:36;;;;;;;4.88;2.60;;;1050.10;537.60;;;;;;4935656;29;20474;-65
2021/06/28 11:12:06;;;;;;;3.15;2.40;;;1050.10;537.60;;;;;;4936225;29;20032;-65
2021/06/28 11:14:35;;;;;;;7.18;2.40;;;1050.10;537.60;;;;;;4935989;29;20043;-74
2021/06/28 11:17:11;;;;;;;3.65;1.83;;;1050.10;537.60;;;;;;4936126;29;20512;-64
2021/06/28 11:19:49;;;;;;;3.97;2.08;;;1050.10;537.60;;;;;;4936034;28;20031;-64
2021/06/28 11:22:36;;;;;;;3.13;2.13;;;1050.20;537.60;;;;;;4932746;29;20020;-71
2021/06/28 11:25:14;;;;;;;2.47;2.28;;;1050.20;537.60;;;;;;4927720;29;20111;-67
2021/06/28 11:27:47;;;;;;;3.78;2.22;;;1050.10;537.60;;;;;;4912334;29;20098;-67
2021/06/28 11:30:13;;;;;;;4.50;2.40;;;1050.20;537.60;;;;;;4924025;29;20036;-74
2021/06/28 11:33:06;;;;;;;5.43;2.55;;;1050.30;537.60;;;;;;4916725;29;20410;-64
2021/06/28 11:35:44;;;;;;;6.40;2.17;;;1050.50;537.60;;;;;;4928187;29;20027;-71
2021/06/28 11:38:37;;;;;;;5.50;2.85;;;1050.30;537.60;;;;;;4935474;29;20099;-74
2021/06/28 11:41:16;;;;;;;4.38;2.30;;;1050.20;537.60;;;;;;4935692;29;20051;-73
2021/06/28 11:43:50;;;;;;;3.40;2.42;;;1050.30;537.60;;;;;;4935376;29;20047;-64
2021/06/28 11:46:31;;;;;;;3.45;2.10;;;1050.30;512.00;;;;;;4943685;28;20034;-72
2021/06/28 11:49:04;;;;;;;2.45;2.20;;;1050.30;537.60;;;;;;4995420;28;20084;-64
2021/06/28 11:51:35;;;;;;;;;;;1050.30;537.60;;;;;;4995743;28;20041;-72
2021/06/28 11:54:04;;;;;;;4.43;2.97;;;1050.20;537.60;;;;;;4995472;28;19940;-67
2021/06/28 11:56:38;;;;;;;4.07;2.50;;;1050.20;512.00;;;;;;4995354;28;20034;-64
2021/06/28 11:59:09;;;;;;;4.07;2.75;;;1050.10;512.00;;;;;;4995206;28;20026;-74
2021/06/28 12:01:43;;;;;;;4.40;2.30;;;1050.10;512.00;;;;;;4977498;28;20030;-69
2021/06/28 12:04:21;;;;;;;3.13;2.22;;;1050.10;512.00;;;;;;4995119;28;20552;-74
2021/06/28 12:06:48;;;;;;;2.83;2.00;;;1050.00;512.00;;;;;;4995153;28;20027;-73
2021/06/28 12:09:19;;;;;;;2.58;2.28;;;1050.00;512.00;;;;;;4987186;28;20035;-65
2021/06/28 12:11:56;;;;;;;4.32;2.58;;;1049.90;512.00;;;;;;4983298;28;20396;-65
2021/06/28 12:14:40;;;;;;;3.97;2.53;;;1049.90;512.00;;;;;;4984274;28;20030;-65
2021/06/28 12:17:12;;;;;;;2.22;2.03;;;1049.90;512.00;;;;;;4993827;28;20380;-65
2021/06/28 12:19:39;;;;;;;2.85;2.28;;;1049.80;537.60;;;;;;4995029;28;20034;-75
2021/06/28 12:22:12;;;;;;;6.57;2.08;;;1049.80;537.60;;;;;;4995071;28;20076;-69